sensor_id;sensor_type;location;lat;lon;timestamp;P1;P2;P0
62591;PMS5003;48659;41.622;2.276;2023-08-31T00:01:18;10;7;
62591;PMS5003;48659;41.622;2.276;2023-08-31T00:03:50;8;8;
62591;PMS5003;48659;41.622;2.276;2023-08-31T00:06:18;9;7;
62591;PMS5003;48659;41.622;2.276;2023-08-31T00:08:50;14;11;
62591;PMS5003;48659;41.622;2.276;2023-08-31T00:11:18;8;8;
62591;PMS5003;48659;41.622;2.276;2023-08-31T00:13:46;14;11;
62591;PMS5003;48659;41.622;2.276;2023-08-31T00:16:13;15;15;
62591;PMS5003;48659;41.622;2.276;2023-08-31T00:18:41;16;13;
62591;PMS5003;48659;41.622;2.276;2023-08-31T00:21:09;15;14;
62591;PMS5003;48659;41.622;2.276;2023-08-31T00:23:36;15;14;
62591;PMS5003;48659;41.622;2.276;2023-08-31T00:26:03;17;12;
62591;PMS5003;48659;41.622;2.276;2023-08-31T00:28:31;13;13;
62591;PMS5003;48659;41.622;2.276;2023-08-31T00:31:00;13;12;
62591;PMS5003;48659;41.622;2.276;2023-08-31T00:33:27;13;13;
62591;PMS5003;48659;41.622;2.276;2023-08-31T00:35:58;9;9;
62591;PMS5003;48659;41.622;2.276;2023-08-31T00:38:26;9;9;
62591;PMS5003;48659;41.622;2.276;2023-08-31T00:40:53;13;9;
62591;PMS5003;48659;41.622;2.276;2023-08-31T00:43:21;10;8;
62591;PMS5003;48659;41.622;2.276;2023-08-31T00:45:50;7;7;
62591;PMS5003;48659;41.622;2.276;2023-08-31T00:48:21;11;11;
62591;PMS5003;48659;41.622;2.276;2023-08-31T00:50:49;14;9;
62591;PMS5003;48659;41.622;2.276;2023-08-31T00:53:17;14;9;
62591;PMS5003;48659;41.622;2.276;2023-08-31T00:55:45;10;10;
62591;PMS5003;48659;41.622;2.276;2023-08-31T00:58:12;12;9;
62591;PMS5003;48659;41.622;2.276;2023-08-31T01:00:42;12;10;
62591;PMS5003;48659;41.622;2.276;2023-08-31T01:03:31;11;10;
62591;PMS5003;48659;41.622;2.276;2023-08-31T01:06:27;8;8;
62591;PMS5003;48659;41.622;2.276;2023-08-31T01:09:05;9;8;
62591;PMS5003;48659;41.622;2.276;2023-08-31T01:11:45;11;10;
62591;PMS5003;48659;41.622;2.276;2023-08-31T01:14:23;14;13;
62591;PMS5003;48659;41.622;2.276;2023-08-31T01:16:53;8;8;
62591;PMS5003;48659;41.622;2.276;2023-08-31T01:19:28;9;8;
62591;PMS5003;48659;41.622;2.276;2023-08-31T01:22:05;12;10;
62591;PMS5003;48659;41.622;2.276;2023-08-31T01:24:37;9;8;
62591;PMS5003;48659;41.622;2.276;2023-08-31T01:27:05;12;8;
62591;PMS5003;48659;41.622;2.276;2023-08-31T01:29:32;11;10;
62591;PMS5003;48659;41.622;2.276;2023-08-31T01:32:00;11;11;
62591;PMS5003;48659;41.622;2.276;2023-08-31T01:34:31;9;9;
62591;PMS5003;48659;41.622;2.276;2023-08-31T01:37:00;10;7;
62591;PMS5003;48659;41.622;2.276;2023-08-31T01:39:37;9;9;
62591;PMS5003;48659;41.622;2.276;2023-08-31T01:42:17;9;8;
62591;PMS5003;48659;41.622;2.276;2023-08-31T01:44:49;8;8;
62591;PMS5003;48659;41.622;2.276;2023-08-31T01:47:17;11;9;
62591;PMS5003;48659;41.622;2.276;2023-08-31T01:49:46;15;11;
62591;PMS5003;48659;41.622;2.276;2023-08-31T01:52:13;8;7;
62591;PMS5003;48659;41.622;2.276;2023-08-31T01:54:41;14;10;
62591;PMS5003;48659;41.622;2.276;2023-08-31T01:57:08;9;9;
62591;PMS5003;48659;41.622;2.276;2023-08-31T01:59:35;12;11;
62591;PMS5003;48659;41.622;2.276;2023-08-31T02:02:03;10;10;
62591;PMS5003;48659;41.622;2.276;2023-08-31T02:04:30;8;8;
62591;PMS5003;48659;41.622;2.276;2023-08-31T02:06:57;7;7;
62591;PMS5003;48659;41.622;2.276;2023-08-31T02:09:25;10;10;
62591;PMS5003;48659;41.622;2.276;2023-08-31T02:11:53;10;10;
62591;PMS5003;48659;41.622;2.276;2023-08-31T02:14:21;8;7;
62591;PMS5003;48659;41.622;2.276;2023-08-31T02:16:51;13;10;
62591;PMS5003;48659;41.622;2.276;2023-08-31T02:19:18;10;10;
62591;PMS5003;48659;41.622;2.276;2023-08-31T02:21:51;11;11;
62591;PMS5003;48659;41.622;2.276;2023-08-31T02:24:18;18;16;
62591;PMS5003;48659;41.622;2.276;2023-08-31T02:26:51;14;12;
62591;PMS5003;48659;41.622;2.276;2023-08-31T02:29:19;18;13;
62591;PMS5003;48659;41.622;2.276;2023-08-31T02:31:46;10;10;
62591;PMS5003;48659;41.622;2.276;2023-08-31T02:34:14;12;12;
62591;PMS5003;48659;41.622;2.276;2023-08-31T02:36:42;13;12;
62591;PMS5003;48659;41.622;2.276;2023-08-31T02:39:22;11;11;
62591;PMS5003;48659;41.622;2.276;2023-08-31T02:41:50;8;8;
62591;PMS5003;48659;41.622;2.276;2023-08-31T02:44:18;12;11;
62591;PMS5003;48659;41.622;2.276;2023-08-31T02:46:45;10;10;
62591;PMS5003;48659;41.622;2.276;2023-08-31T02:49:13;11;9;
62591;PMS5003;48659;41.622;2.276;2023-08-31T02:51:41;11;11;
62591;PMS5003;48659;41.622;2.276;2023-08-31T02:54:08;8;8;
62591;PMS5003;48659;41.622;2.276;2023-08-31T02:56:35;11;10;
62591;PMS5003;48659;41.622;2.276;2023-08-31T02:59:02;11;11;
62591;PMS5003;48659;41.622;2.276;2023-08-31T03:01:30;11;9;
62591;PMS5003;48659;41.622;2.276;2023-08-31T03:03:58;14;14;
62591;PMS5003;48659;41.622;2.276;2023-08-31T03:06:26;13;12;
62591;PMS5003;48659;41.622;2.276;2023-08-31T03:08:53;13;9;
62591;PMS5003;48659;41.622;2.276;2023-08-31T03:11:20;10;10;
62591;PMS5003;48659;41.622;2.276;2023-08-31T03:13:51;17;16;
62591;PMS5003;48659;41.622;2.276;2023-08-31T03:16:18;14;12;
62591;PMS5003;48659;41.622;2.276;2023-08-31T03:18:46;9;9;
62591;PMS5003;48659;41.622;2.276;2023-08-31T03:21:14;13;12;
62591;PMS5003;48659;41.622;2.276;2023-08-31T03:23:42;12;11;
62591;PMS5003;48659;41.622;2.276;2023-08-31T03:26:17;11;11;
62591;PMS5003;48659;41.622;2.276;2023-08-31T03:28:45;10;10;
62591;PMS5003;48659;41.622;2.276;2023-08-31T03:31:13;15;13;
62591;PMS5003;48659;41.622;2.276;2023-08-31T03:33:40;14;12;
62591;PMS5003;48659;41.622;2.276;2023-08-31T03:36:08;14;14;
62591;PMS5003;48659;41.622;2.276;2023-08-31T03:38:36;14;12;
62591;PMS5003;48659;41.622;2.276;2023-08-31T03:41:04;9;9;
62591;PMS5003;48659;41.622;2.276;2023-08-31T03:43:31;11;10;
62591;PMS5003;48659;41.622;2.276;2023-08-31T03:45:59;13;11;
62591;PMS5003;48659;41.622;2.276;2023-08-31T03:48:27;13;13;
62591;PMS5003;48659;41.622;2.276;2023-08-31T03:50:55;13;11;
62591;PMS5003;48659;41.622;2.276;2023-08-31T03:53:22;10;10;
62591;PMS5003;48659;41.622;2.276;2023-08-31T03:55:50;17;12;
62591;PMS5003;48659;41.622;2.276;2023-08-31T03:58:17;13;13;
62591;PMS5003;48659;41.622;2.276;2023-08-31T04:00:50;10;10;
62591;PMS5003;48659;41.622;2.276;2023-08-31T04:03:18;11;11;
62591;PMS5003;48659;41.622;2.276;2023-08-31T04:05:53;11;11;
62591;PMS5003;48659;41.622;2.276;2023-08-31T04:08:20;15;13;
62591;PMS5003;48659;41.622;2.276;2023-08-31T04:10:48;17;15;
62591;PMS5003;48659;41.622;2.276;2023-08-31T04:13:15;22;20;
62591;PMS5003;48659;41.622;2.276;2023-08-31T04:15:42;11;11;
62591;PMS5003;48659;41.622;2.276;2023-08-31T04:15:51;12;12;
62591;PMS5003;48659;41.622;2.276;2023-08-31T04:18:20;15;11;
62591;PMS5003;48659;41.622;2.276;2023-08-31T04:20:52;13;12;
62591;PMS5003;48659;41.622;2.276;2023-08-31T04:23:20;11;11;
62591;PMS5003;48659;41.622;2.276;2023-08-31T04:25:51;11;11;
62591;PMS5003;48659;41.622;2.276;2023-08-31T04:28:18;14;14;
62591;PMS5003;48659;41.622;2.276;2023-08-31T04:30:51;12;12;
62591;PMS5003;48659;41.622;2.276;2023-08-31T04:33:19;10;10;
62591;PMS5003;48659;41.622;2.276;2023-08-31T04:35:50;12;11;
62591;PMS5003;48659;41.622;2.276;2023-08-31T04:38:18;16;12;
62591;PMS5003;48659;41.622;2.276;2023-08-31T04:40:51;14;14;
62591;PMS5003;48659;41.622;2.276;2023-08-31T04:43:18;15;13;
62591;PMS5003;48659;41.622;2.276;2023-08-31T04:45:51;17;17;
62591;PMS5003;48659;41.622;2.276;2023-08-31T04:48:18;12;12;
62591;PMS5003;48659;41.622;2.276;2023-08-31T04:50:55;15;14;
62591;PMS5003;48659;41.622;2.276;2023-08-31T04:53:23;14;11;
62591;PMS5003;48659;41.622;2.276;2023-08-31T04:55:51;15;14;
62591;PMS5003;48659;41.622;2.276;2023-08-31T04:58:19;15;12;
62591;PMS5003;48659;41.622;2.276;2023-08-31T05:00:47;17;17;
62591;PMS5003;48659;41.622;2.276;2023-08-31T05:03:14;17;14;
62591;PMS5003;48659;41.622;2.276;2023-08-31T05:05:41;14;12;
62591;PMS5003;48659;41.622;2.276;2023-08-31T05:08:09;15;14;
62591;PMS5003;48659;41.622;2.276;2023-08-31T05:10:37;14;11;
62591;PMS5003;48659;41.622;2.276;2023-08-31T05:13:04;14;12;
62591;PMS5003;48659;41.622;2.276;2023-08-31T05:15:31;13;12;
62591;PMS5003;48659;41.622;2.276;2023-08-31T05:17:59;16;16;
62591;PMS5003;48659;41.622;2.276;2023-08-31T05:20:26;16;12;
62591;PMS5003;48659;41.622;2.276;2023-08-31T05:22:53;13;13;
62591;PMS5003;48659;41.622;2.276;2023-08-31T05:25:21;14;12;
62591;PMS5003;48659;41.622;2.276;2023-08-31T05:27:51;16;13;
62591;PMS5003;48659;41.622;2.276;2023-08-31T05:30:19;13;13;
62591;PMS5003;48659;41.622;2.276;2023-08-31T05:32:47;11;10;
62591;PMS5003;48659;41.622;2.276;2023-08-31T05:35:14;10;10;
62591;PMS5003;48659;41.622;2.276;2023-08-31T05:37:42;13;13;
62591;PMS5003;48659;41.622;2.276;2023-08-31T05:40:10;16;14;
62591;PMS5003;48659;41.622;2.276;2023-08-31T05:42:37;12;11;
62591;PMS5003;48659;41.622;2.276;2023-08-31T05:45:04;13;10;
62591;PMS5003;48659;41.622;2.276;2023-08-31T05:47:33;12;12;
62591;PMS5003;48659;41.622;2.276;2023-08-31T05:50:01;13;12;
62591;PMS5003;48659;41.622;2.276;2023-08-31T05:52:28;11;10;
62591;PMS5003;48659;41.622;2.276;2023-08-31T05:54:55;14;12;
62591;PMS5003;48659;41.622;2.276;2023-08-31T05:57:22;8;8;
62591;PMS5003;48659;41.622;2.276;2023-08-31T05:59:51;8;7;
62591;PMS5003;48659;41.622;2.276;2023-08-31T06:02:19;6;6;
62591;PMS5003;48659;41.622;2.276;2023-08-31T06:04:46;9;7;
62591;PMS5003;48659;41.622;2.276;2023-08-31T06:07:14;8;7;
62591;PMS5003;48659;41.622;2.276;2023-08-31T06:09:41;7;6;
62591;PMS5003;48659;41.622;2.276;2023-08-31T06:12:09;6;5;
62591;PMS5003;48659;41.622;2.276;2023-08-31T06:14:36;6;4;
62591;PMS5003;48659;41.622;2.276;2023-08-31T06:17:03;4;4;
62591;PMS5003;48659;41.622;2.276;2023-08-31T06:19:30;6;5;
62591;PMS5003;48659;41.622;2.276;2023-08-31T06:21:57;5;5;
62591;PMS5003;48659;41.622;2.276;2023-08-31T06:24:25;3;3;
62591;PMS5003;48659;41.622;2.276;2023-08-31T06:26:53;7;7;
62591;PMS5003;48659;41.622;2.276;2023-08-31T06:29:20;8;8;
62591;PMS5003;48659;41.622;2.276;2023-08-31T06:31:47;4;4;
62591;PMS5003;48659;41.622;2.276;2023-08-31T06:34:15;5;5;
62591;PMS5003;48659;41.622;2.276;2023-08-31T06:36:50;4;4;
62591;PMS5003;48659;41.622;2.276;2023-08-31T06:39:19;6;5;
62591;PMS5003;48659;41.622;2.276;2023-08-31T06:41:47;6;6;
62591;PMS5003;48659;41.622;2.276;2023-08-31T06:44:15;7;6;
62591;PMS5003;48659;41.622;2.276;2023-08-31T06:46:42;4;4;
62591;PMS5003;48659;41.622;2.276;2023-08-31T06:49:24;7;6;
62591;PMS5003;48659;41.622;2.276;2023-08-31T06:51:51;9;6;
62591;PMS5003;48659;41.622;2.276;2023-08-31T06:54:18;4;4;
62591;PMS5003;48659;41.622;2.276;2023-08-31T06:56:46;5;5;
62591;PMS5003;48659;41.622;2.276;2023-08-31T06:59:14;9;9;
62591;PMS5003;48659;41.622;2.276;2023-08-31T07:01:42;5;5;
62591;PMS5003;48659;41.622;2.276;2023-08-31T07:04:09;9;8;
62591;PMS5003;48659;41.622;2.276;2023-08-31T07:06:37;9;9;
62591;PMS5003;48659;41.622;2.276;2023-08-31T07:09:05;8;8;
62591;PMS5003;48659;41.622;2.276;2023-08-31T07:11:33;10;8;
62591;PMS5003;48659;41.622;2.276;2023-08-31T07:14:00;12;12;
62591;PMS5003;48659;41.622;2.276;2023-08-31T07:16:28;10;10;
62591;PMS5003;48659;41.622;2.276;2023-08-31T07:18:55;19;18;
62591;PMS5003;48659;41.622;2.276;2023-08-31T07:21:23;15;14;
62591;PMS5003;48659;41.622;2.276;2023-08-31T07:23:50;16;14;
62591;PMS5003;48659;41.622;2.276;2023-08-31T07:26:17;14;13;
62591;PMS5003;48659;41.622;2.276;2023-08-31T07:28:50;13;11;
62591;PMS5003;48659;41.622;2.276;2023-08-31T07:31:18;12;11;
62591;PMS5003;48659;41.622;2.276;2023-08-31T07:33:45;14;13;
62591;PMS5003;48659;41.622;2.276;2023-08-31T07:36:13;14;13;
62591;PMS5003;48659;41.622;2.276;2023-08-31T07:38:40;19;19;
62591;PMS5003;48659;41.622;2.276;2023-08-31T07:41:07;12;12;
62591;PMS5003;48659;41.622;2.276;2023-08-31T07:43:34;18;18;
62591;PMS5003;48659;41.622;2.276;2023-08-31T07:46:02;13;13;
62591;PMS5003;48659;41.622;2.276;2023-08-31T07:48:29;14;13;
62591;PMS5003;48659;41.622;2.276;2023-08-31T07:50:57;15;12;
62591;PMS5003;48659;41.622;2.276;2023-08-31T07:53:25;19;15;
62591;PMS5003;48659;41.622;2.276;2023-08-31T07:55:52;14;13;
62591;PMS5003;48659;41.622;2.276;2023-08-31T07:58:20;15;14;
62591;PMS5003;48659;41.622;2.276;2023-08-31T08:00:48;15;13;
62591;PMS5003;48659;41.622;2.276;2023-08-31T08:03:19;11;11;
62591;PMS5003;48659;41.622;2.276;2023-08-31T08:05:47;12;11;
62591;PMS5003;48659;41.622;2.276;2023-08-31T08:08:15;9;9;
62591;PMS5003;48659;41.622;2.276;2023-08-31T08:10:42;12;11;
62591;PMS5003;48659;41.622;2.276;2023-08-31T08:13:10;8;8;
62591;PMS5003;48659;41.622;2.276;2023-08-31T08:15:38;11;11;
62591;PMS5003;48659;41.622;2.276;2023-08-31T08:18:05;9;9;
62591;PMS5003;48659;41.622;2.276;2023-08-31T08:20:33;9;9;
62591;PMS5003;48659;41.622;2.276;2023-08-31T08:23:00;11;11;
62591;PMS5003;48659;41.622;2.276;2023-08-31T08:25:28;11;10;
62591;PMS5003;48659;41.622;2.276;2023-08-31T08:27:56;12;10;
62591;PMS5003;48659;41.622;2.276;2023-08-31T08:30:24;15;12;
62591;PMS5003;48659;41.622;2.276;2023-08-31T08:32:52;10;10;
62591;PMS5003;48659;41.622;2.276;2023-08-31T08:35:19;11;9;
62591;PMS5003;48659;41.622;2.276;2023-08-31T08:37:52;12;10;
62591;PMS5003;48659;41.622;2.276;2023-08-31T08:40:20;11;9;
62591;PMS5003;48659;41.622;2.276;2023-08-31T08:42:52;10;10;
62591;PMS5003;48659;41.622;2.276;2023-08-31T08:45:19;13;10;
62591;PMS5003;48659;41.622;2.276;2023-08-31T08:47:51;9;9;
62591;PMS5003;48659;41.622;2.276;2023-08-31T08:50:19;9;9;
62591;PMS5003;48659;41.622;2.276;2023-08-31T08:52:48;11;10;
62591;PMS5003;48659;41.622;2.276;2023-08-31T08:55:16;8;8;
62591;PMS5003;48659;41.622;2.276;2023-08-31T08:57:50;9;8;
62591;PMS5003;48659;41.622;2.276;2023-08-31T09:00:18;14;11;
62591;PMS5003;48659;41.622;2.276;2023-08-31T09:02:45;6;6;
62591;PMS5003;48659;41.622;2.276;2023-08-31T09:05:13;7;7;
62591;PMS5003;48659;41.622;2.276;2023-08-31T09:08:00;10;9;
62591;PMS5003;48659;41.622;2.276;2023-08-31T09:10:37;11;10;
62591;PMS5003;48659;41.622;2.276;2023-08-31T09:13:06;7;6;
62591;PMS5003;48659;41.622;2.276;2023-08-31T09:15:36;8;8;
62591;PMS5003;48659;41.622;2.276;2023-08-31T09:18:06;10;8;
62591;PMS5003;48659;41.622;2.276;2023-08-31T09:20:42;9;8;
62591;PMS5003;48659;41.622;2.276;2023-08-31T09:23:21;7;7;
62591;PMS5003;48659;41.622;2.276;2023-08-31T09:25:50;6;6;
62591;PMS5003;48659;41.622;2.276;2023-08-31T09:28:18;8;8;
62591;PMS5003;48659;41.622;2.276;2023-08-31T09:30:48;6;6;
62591;PMS5003;48659;41.622;2.276;2023-08-31T09:33:16;4;4;
62591;PMS5003;48659;41.622;2.276;2023-08-31T09:35:53;8;8;
62591;PMS5003;48659;41.622;2.276;2023-08-31T09:38:23;6;6;
62591;PMS5003;48659;41.622;2.276;2023-08-31T09:40:50;4;4;
62591;PMS5003;48659;41.622;2.276;2023-08-31T09:43:19;6;5;
62591;PMS5003;48659;41.622;2.276;2023-08-31T09:45:52;8;8;
62591;PMS5003;48659;41.622;2.276;2023-08-31T09:48:20;5;5;
62591;PMS5003;48659;41.622;2.276;2023-08-31T09:50:55;6;6;
62591;PMS5003;48659;41.622;2.276;2023-08-31T09:53:23;7;6;
62591;PMS5003;48659;41.622;2.276;2023-08-31T09:55:51;9;9;
62591;PMS5003;48659;41.622;2.276;2023-08-31T09:58:19;4;4;
62591;PMS5003;48659;41.622;2.276;2023-08-31T10:00:54;9;7;
62591;PMS5003;48659;41.622;2.276;2023-08-31T10:03:22;6;5;
62591;PMS5003;48659;41.622;2.276;2023-08-31T10:05:52;7;7;
62591;PMS5003;48659;41.622;2.276;2023-08-31T10:08:20;4;4;
62591;PMS5003;48659;41.622;2.276;2023-08-31T10:10:48;12;11;
62591;PMS5003;48659;41.622;2.276;2023-08-31T10:13:16;37;37;
62591;PMS5003;48659;41.622;2.276;2023-08-31T10:15:45;7;6;
62591;PMS5003;48659;41.622;2.276;2023-08-31T10:18:15;6;6;
62591;PMS5003;48659;41.622;2.276;2023-08-31T10:20:55;3;3;
62591;PMS5003;48659;41.622;2.276;2023-08-31T10:23:23;6;6;
62591;PMS5003;48659;41.622;2.276;2023-08-31T10:26:07;5;5;
62591;PMS5003;48659;41.622;2.276;2023-08-31T10:28:42;5;5;
62591;PMS5003;48659;41.622;2.276;2023-08-31T10:31:52;4;4;
62591;PMS5003;48659;41.622;2.276;2023-08-31T10:34:19;5;5;
62591;PMS5003;48659;41.622;2.276;2023-08-31T10:37:01;2;2;
62591;PMS5003;48659;41.622;2.276;2023-08-31T10:39:45;6;5;
62591;PMS5003;48659;41.622;2.276;2023-08-31T10:42:13;4;3;
62591;PMS5003;48659;41.622;2.276;2023-08-31T10:44:41;3;3;
62591;PMS5003;48659;41.622;2.276;2023-08-31T10:47:10;2;2;
62591;PMS5003;48659;41.622;2.276;2023-08-31T10:49:38;3;3;
62591;PMS5003;48659;41.622;2.276;2023-08-31T10:52:16;4;2;
62591;PMS5003;48659;41.622;2.276;2023-08-31T10:54:54;3;3;
62591;PMS5003;48659;41.622;2.276;2023-08-31T10:57:29;4;4;
62591;PMS5003;48659;41.622;2.276;2023-08-31T10:59:57;3;3;
62591;PMS5003;48659;41.622;2.276;2023-08-31T11:02:41;3;3;
62591;PMS5003;48659;41.622;2.276;2023-08-31T11:05:21;3;3;
62591;PMS5003;48659;41.622;2.276;2023-08-31T11:07:49;4;4;
62591;PMS5003;48659;41.622;2.276;2023-08-31T11:10:17;3;3;
62591;PMS5003;48659;41.622;2.276;2023-08-31T11:12:51;5;4;
62591;PMS5003;48659;41.622;2.276;2023-08-31T11:15:20;4;2;
62591;PMS5003;48659;41.622;2.276;2023-08-31T11:17:50;3;3;
62591;PMS5003;48659;41.622;2.276;2023-08-31T11:20:19;3;2;
62591;PMS5003;48659;41.622;2.276;2023-08-31T11:22:49;3;3;
62591;PMS5003;48659;41.622;2.276;2023-08-31T11:25:17;3;3;
62591;PMS5003;48659;41.622;2.276;2023-08-31T11:27:52;4;4;
62591;PMS5003;48659;41.622;2.276;2023-08-31T11:30:20;3;3;
62591;PMS5003;48659;41.622;2.276;2023-08-31T11:32:52;3;3;
62591;PMS5003;48659;41.622;2.276;2023-08-31T11:35:20;5;5;
62591;PMS5003;48659;41.622;2.276;2023-08-31T11:37:52;2;2;
62591;PMS5003;48659;41.622;2.276;2023-08-31T11:40:23;4;4;
62591;PMS5003;48659;41.622;2.276;2023-08-31T11:42:52;5;4;
62591;PMS5003;48659;41.622;2.276;2023-08-31T11:45:20;5;3;
62591;PMS5003;48659;41.622;2.276;2023-08-31T11:47:48;4;4;
62591;PMS5003;48659;41.622;2.276;2023-08-31T11:50:16;6;5;
62591;PMS5003;48659;41.622;2.276;2023-08-31T11:52:53;4;2;
62591;PMS5003;48659;41.622;2.276;2023-08-31T11:55:20;8;4;
62591;PMS5003;48659;41.622;2.276;2023-08-31T11:57:52;6;3;
62591;PMS5003;48659;41.622;2.276;2023-08-31T12:00:20;5;2;
62591;PMS5003;48659;41.622;2.276;2023-08-31T12:02:55;4;4;
62591;PMS5003;48659;41.622;2.276;2023-08-31T12:05:24;5;5;
62591;PMS5003;48659;41.622;2.276;2023-08-31T12:07:53;3;2;
62591;PMS5003;48659;41.622;2.276;2023-08-31T12:10:23;5;4;
62591;PMS5003;48659;41.622;2.276;2023-08-31T12:12:51;5;4;
62591;PMS5003;48659;41.622;2.276;2023-08-31T12:15:19;3;3;
62591;PMS5003;48659;41.622;2.276;2023-08-31T12:17:47;1;1;
62591;PMS5003;48659;41.622;2.276;2023-08-31T12:20:15;3;3;
62591;PMS5003;48659;41.622;2.276;2023-08-31T12:22:43;3;3;
62591;PMS5003;48659;41.622;2.276;2023-08-31T12:25:19;3;1;
62591;PMS5003;48659;41.622;2.276;2023-08-31T12:27:50;4;2;
62591;PMS5003;48659;41.622;2.276;2023-08-31T12:30:20;4;2;
62591;PMS5003;48659;41.622;2.276;2023-08-31T12:32:51;4;2;
62591;PMS5003;48659;41.622;2.276;2023-08-31T12:35:19;2;2;
62591;PMS5003;48659;41.622;2.276;2023-08-31T12:37:46;2;2;
62591;PMS5003;48659;41.622;2.276;2023-08-31T12:40:15;2;2;
62591;PMS5003;48659;41.622;2.276;2023-08-31T12:42:42;3;2;
62591;PMS5003;48659;41.622;2.276;2023-08-31T12:45:18;4;2;
62591;PMS5003;48659;41.622;2.276;2023-08-31T12:47:46;2;2;
62591;PMS5003;48659;41.622;2.276;2023-08-31T12:50:15;2;2;
62591;PMS5003;48659;41.622;2.276;2023-08-31T12:52:43;5;3;
62591;PMS5003;48659;41.622;2.276;2023-08-31T12:55:19;3;3;
62591;PMS5003;48659;41.622;2.276;2023-08-31T12:57:46;2;2;
62591;PMS5003;48659;41.622;2.276;2023-08-31T13:00:14;2;2;
62591;PMS5003;48659;41.622;2.276;2023-08-31T13:02:44;3;3;
62591;PMS5003;48659;41.622;2.276;2023-08-31T13:05:11;1;1;
62591;PMS5003;48659;41.622;2.276;2023-08-31T13:07:39;3;3;
62591;PMS5003;48659;41.622;2.276;2023-08-31T13:10:07;2;2;
62591;PMS5003;48659;41.622;2.276;2023-08-31T13:12:34;2;2;
62591;PMS5003;48659;41.622;2.276;2023-08-31T13:15:02;3;3;
62591;PMS5003;48659;41.622;2.276;2023-08-31T13:17:30;2;2;
62591;PMS5003;48659;41.622;2.276;2023-08-31T13:19:57;3;3;
62591;PMS5003;48659;41.622;2.276;2023-08-31T13:22:30;2;2;
62591;PMS5003;48659;41.622;2.276;2023-08-31T13:24:57;2;2;
62591;PMS5003;48659;41.622;2.276;2023-08-31T13:27:24;3;3;
62591;PMS5003;48659;41.622;2.276;2023-08-31T13:29:52;5;3;
62591;PMS5003;48659;41.622;2.276;2023-08-31T13:32:20;2;2;
62591;PMS5003;48659;41.622;2.276;2023-08-31T13:34:52;4;3;
62591;PMS5003;48659;41.622;2.276;2023-08-31T13:37:19;4;3;
62591;PMS5003;48659;41.622;2.276;2023-08-31T13:39:51;1;1;
62591;PMS5003;48659;41.622;2.276;2023-08-31T13:42:20;2;2;
62591;PMS5003;48659;41.622;2.276;2023-08-31T13:44:47;2;2;
62591;PMS5003;48659;41.622;2.276;2023-08-31T13:47:16;3;3;
62591;PMS5003;48659;41.622;2.276;2023-08-31T13:49:43;3;3;
62591;PMS5003;48659;41.622;2.276;2023-08-31T13:52:11;5;4;
62591;PMS5003;48659;41.622;2.276;2023-08-31T13:54:38;3;3;
62591;PMS5003;48659;41.622;2.276;2023-08-31T13:57:06;5;4;
62591;PMS5003;48659;41.622;2.276;2023-08-31T13:59:33;4;3;
62591;PMS5003;48659;41.622;2.276;2023-08-31T14:02:02;2;2;
62591;PMS5003;48659;41.622;2.276;2023-08-31T14:04:30;3;3;
62591;PMS5003;48659;41.622;2.276;2023-08-31T14:06:57;5;3;
62591;PMS5003;48659;41.622;2.276;2023-08-31T14:09:25;4;3;
62591;PMS5003;48659;41.622;2.276;2023-08-31T14:11:53;4;3;
62591;PMS5003;48659;41.622;2.276;2023-08-31T14:14:21;2;2;
62591;PMS5003;48659;41.622;2.276;2023-08-31T14:16:51;3;3;
62591;PMS5003;48659;41.622;2.276;2023-08-31T14:19:18;4;4;
62591;PMS5003;48659;41.622;2.276;2023-08-31T14:21:51;4;2;
62591;PMS5003;48659;41.622;2.276;2023-08-31T14:24:18;4;2;
62591;PMS5003;48659;41.622;2.276;2023-08-31T14:26:51;4;4;
62591;PMS5003;48659;41.622;2.276;2023-08-31T14:29:19;3;3;
62591;PMS5003;48659;41.622;2.276;2023-08-31T14:31:46;3;3;
62591;PMS5003;48659;41.622;2.276;2023-08-31T14:34:14;5;3;
62591;PMS5003;48659;41.622;2.276;2023-08-31T14:36:42;2;2;
62591;PMS5003;48659;41.622;2.276;2023-08-31T14:39:08;2;2;
62591;PMS5003;48659;41.622;2.276;2023-08-31T14:41:36;4;4;
62591;PMS5003;48659;41.622;2.276;2023-08-31T14:44:04;4;4;
62591;PMS5003;48659;41.622;2.276;2023-08-31T14:46:31;4;3;
62591;PMS5003;48659;41.622;2.276;2023-08-31T14:48:59;5;3;
62591;PMS5003;48659;41.622;2.276;2023-08-31T14:51:27;3;3;
62591;PMS5003;48659;41.622;2.276;2023-08-31T14:53:55;4;3;
62591;PMS5003;48659;41.622;2.276;2023-08-31T14:56:23;3;3;
62591;PMS5003;48659;41.622;2.276;2023-08-31T14:58:52;3;3;
62591;PMS5003;48659;41.622;2.276;2023-08-31T15:01:19;3;3;
62591;PMS5003;48659;41.622;2.276;2023-08-31T15:03:47;2;2;
62591;PMS5003;48659;41.622;2.276;2023-08-31T15:06:15;3;3;
62591;PMS5003;48659;41.622;2.276;2023-08-31T15:08:42;7;4;
62591;PMS5003;48659;41.622;2.276;2023-08-31T15:11:10;6;4;
62591;PMS5003;48659;41.622;2.276;2023-08-31T15:13:38;5;4;
62591;PMS5003;48659;41.622;2.276;2023-08-31T15:16:05;4;3;
62591;PMS5003;48659;41.622;2.276;2023-08-31T15:18:33;4;4;
62591;PMS5003;48659;41.622;2.276;2023-08-31T15:21:00;5;5;
62591;PMS5003;48659;41.622;2.276;2023-08-31T15:23:28;6;4;
62591;PMS5003;48659;41.622;2.276;2023-08-31T15:25:58;4;4;
62591;PMS5003;48659;41.622;2.276;2023-08-31T15:28:28;4;4;
62591;PMS5003;48659;41.622;2.276;2023-08-31T15:30:55;5;3;
62591;PMS5003;48659;41.622;2.276;2023-08-31T15:33:23;3;3;
62591;PMS5003;48659;41.622;2.276;2023-08-31T15:35:51;4;4;
62591;PMS5003;48659;41.622;2.276;2023-08-31T15:38:27;3;3;
62591;PMS5003;48659;41.622;2.276;2023-08-31T15:40:55;4;3;
62591;PMS5003;48659;41.622;2.276;2023-08-31T15:43:22;6;4;
62591;PMS5003;48659;41.622;2.276;2023-08-31T15:45:52;5;5;
62591;PMS5003;48659;41.622;2.276;2023-08-31T15:48:19;5;4;
62591;PMS5003;48659;41.622;2.276;2023-08-31T15:50:57;4;4;
62591;PMS5003;48659;41.622;2.276;2023-08-31T15:53:25;5;3;
62591;PMS5003;48659;41.622;2.276;2023-08-31T15:55:53;2;2;
62591;PMS5003;48659;41.622;2.276;2023-08-31T15:58:22;5;5;
62591;PMS5003;48659;41.622;2.276;2023-08-31T16:00:50;5;5;
62591;PMS5003;48659;41.622;2.276;2023-08-31T16:03:18;4;4;
62591;PMS5003;48659;41.622;2.276;2023-08-31T16:05:52;4;2;
62591;PMS5003;48659;41.622;2.276;2023-08-31T16:08:20;7;5;
62591;PMS5003;48659;41.622;2.276;2023-08-31T16:10:52;3;3;
62591;PMS5003;48659;41.622;2.276;2023-08-31T16:13:20;4;3;
62591;PMS5003;48659;41.622;2.276;2023-08-31T16:15:55;4;4;
62591;PMS5003;48659;41.622;2.276;2023-08-31T16:18:23;4;4;
62591;PMS5003;48659;41.622;2.276;2023-08-31T16:21:01;4;4;
62591;PMS5003;48659;41.622;2.276;2023-08-31T16:23:28;5;3;
62591;PMS5003;48659;41.622;2.276;2023-08-31T16:25:56;7;5;
62591;PMS5003;48659;41.622;2.276;2023-08-31T16:28:24;5;4;
62591;PMS5003;48659;41.622;2.276;2023-08-31T16:30:51;3;3;
62591;PMS5003;48659;41.622;2.276;2023-08-31T16:33:19;4;4;
62591;PMS5003;48659;41.622;2.276;2023-08-31T16:35:55;3;3;
62591;PMS5003;48659;41.622;2.276;2023-08-31T16:38:23;5;3;
62591;PMS5003;48659;41.622;2.276;2023-08-31T16:40:52;4;4;
62591;PMS5003;48659;41.622;2.276;2023-08-31T16:43:19;4;4;
62591;PMS5003;48659;41.622;2.276;2023-08-31T16:45:51;3;3;
62591;PMS5003;48659;41.622;2.276;2023-08-31T16:48:19;3;3;
62591;PMS5003;48659;41.622;2.276;2023-08-31T16:50:52;4;4;